sensor_id;sensor_type;location;lat;lon;timestamp;pressure;altitude;pressure_sealevel;temperature;humidity
10310;BME280;5200;43.236;27.986;2023-07-28T00:01:19;99849.69;;;15.53;100.00
10310;BME280;5200;43.236;27.986;2023-07-28T00:03:47;99842.78;;;15.44;100.00
10310;BME280;5200;43.236;27.986;2023-07-28T00:06:14;99823.63;;;15.26;100.00
10310;BME280;5200;43.236;27.986;2023-07-28T00:08:41;99877.69;;;15.56;100.00
10310;BME280;5200;43.236;27.986;2023-07-28T00:11:09;99844.81;;;15.34;100.00
10310;BME280;5200;43.236;27.986;2023-07-28T00:13:37;99854.06;;;15.38;100.00
10310;BME280;5200;43.236;27.986;2023-07-28T00:16:07;99846.16;;;15.30;100.00
10310;BME280;5200;43.236;27.986;2023-07-28T00:18:35;99872.94;;;15.43;100.00
10310;BME280;5200;43.236;27.986;2023-07-28T00:21:04;99842.38;;;15.24;100.00
10310;BME280;5200;43.236;27.986;2023-07-28T00:23:32;99865.66;;;15.37;100.00
10310;BME280;5200;43.236;27.986;2023-07-28T00:25:59;99862.06;;;15.30;100.00
10310;BME280;5200;43.236;27.986;2023-07-28T00:28:28;99887.19;;;15.42;100.00
10310;BME280;5200;43.236;27.986;2023-07-28T00:30:55;99839.06;;;15.14;100.00
10310;BME280;5200;43.236;27.986;2023-07-28T00:33:22;99869.00;;;15.31;100.00
10310;BME280;5200;43.236;27.986;2023-07-28T00:35:49;99860.06;;;15.32;100.00
10310;BME280;5200;43.236;27.986;2023-07-28T00:38:18;99857.72;;;15.37;100.00
10310;BME280;5200;43.236;27.986;2023-07-28T00:40:44;99850.63;;;15.29;100.00
10310;BME280;5200;43.236;27.986;2023-07-28T00:43:12;99868.09;;;15.47;100.00
10310;BME280;5200;43.236;27.986;2023-07-28T00:45:39;99882.19;;;15.47;100.00
10310;BME280;5200;43.236;27.986;2023-07-28T00:48:10;99877.06;;;15.46;100.00
10310;BME280;5200;43.236;27.986;2023-07-28T00:50:39;99858.06;;;15.34;100.00
10310;BME280;5200;43.236;27.986;2023-07-28T00:53:06;99872.94;;;15.43;100.00
10310;BME280;5200;43.236;27.986;2023-07-28T00:55:35;99846.50;;;15.27;100.00
10310;BME280;5200;43.236;27.986;2023-07-28T00:58:02;99874.88;;;15.49;100.00
10310;BME280;5200;43.236;27.986;2023-07-28T01:00:29;99898.44;;;15.52;100.00
10310;BME280;5200;43.236;27.986;2023-07-28T01:02:56;99891.28;;;15.53;100.00
10310;BME280;5200;43.236;27.986;2023-07-28T01:05:27;99866.31;;;15.39;100.00
10310;BME280;5200;43.236;27.986;2023-07-28T01:08:02;99875.91;;;15.48;100.00
10310;BME280;5200;43.236;27.986;2023-07-28T01:10:32;99870.75;;;15.47;100.00
10310;BME280;5200;43.236;27.986;2023-07-28T01:13:04;99895.72;;;15.60;100.00
10310;BME280;5200;43.236;27.986;2023-07-28T01:15:31;99873.91;;;15.50;100.00
10310;BME280;5200;43.236;27.986;2023-07-28T01:17:58;99894.38;;;15.64;100.00
10310;BME280;5200;43.236;27.986;2023-07-28T01:20:29;99884.47;;;15.58;100.00
10310;BME280;5200;43.236;27.986;2023-07-28T01:23:08;99892.06;;;15.61;100.00
10310;BME280;5200;43.236;27.986;2023-07-28T01:25:49;99888.78;;;15.59;100.00
10310;BME280;5200;43.236;27.986;2023-07-28T01:28:21;99896.69;;;15.68;100.00
10310;BME280;5200;43.236;27.986;2023-07-28T01:30:48;99886.75;;;15.61;100.00
10310;BME280;5200;43.236;27.986;2023-07-28T01:33:15;99897.69;;;15.67;100.00
10310;BME280;5200;43.236;27.986;2023-07-28T01:35:42;99872.75;;;15.44;100.00
10310;BME280;5200;43.236;27.986;2023-07-28T01:38:09;99878.91;;;15.45;100.00
10310;BME280;5200;43.236;27.986;2023-07-28T01:40:37;99907.66;;;15.56;100.00
10310;BME280;5200;43.236;27.986;2023-07-28T01:43:04;99900.38;;;15.58;100.00
10310;BME280;5200;43.236;27.986;2023-07-28T01:45:32;99881.88;;;15.42;100.00
10310;BME280;5200;43.236;27.986;2023-07-28T01:47:59;99898.88;;;15.56;100.00
10310;BME280;5200;43.236;27.986;2023-07-28T01:50:26;99893.44;;;15.49;100.00
10310;BME280;5200;43.236;27.986;2023-07-28T01:52:53;99891.50;;;15.43;100.00
10310;BME280;5200;43.236;27.986;2023-07-28T01:55:20;99879.75;;;15.37;100.00
10310;BME280;5200;43.236;27.986;2023-07-28T01:57:53;99909.72;;;15.46;100.00
10310;BME280;5200;43.236;27.986;2023-07-28T02:00:20;99901.09;;;15.44;100.00
10310;BME280;5200;43.236;27.986;2023-07-28T02:02:50;99910.06;;;15.43;100.00
10310;BME280;5200;43.236;27.986;2023-07-28T02:05:17;99909.22;;;15.42;100.00
10310;BME280;5200;43.236;27.986;2023-07-28T02:07:44;99909.72;;;15.46;100.00
10310;BME280;5200;43.236;27.986;2023-07-28T02:10:11;99889.88;;;15.34;100.00
10310;BME280;5200;43.236;27.986;2023-07-28T02:12:39;99914.34;;;15.52;100.00
10310;BME280;5200;43.236;27.986;2023-07-28T02:15:06;99910.06;;;15.43;100.00
10310;BME280;5200;43.236;27.986;2023-07-28T02:17:34;99917.50;;;15.48;100.00
10310;BME280;5200;43.236;27.986;2023-07-28T02:20:02;99912.66;;;15.51;100.00
10310;BME280;5200;43.236;27.986;2023-07-28T02:22:29;99914.97;;;15.54;100.00
10310;BME280;5200;43.236;27.986;2023-07-28T02:24:56;99910.00;;;15.51;100.00
10310;BME280;5200;43.236;27.986;2023-07-28T02:27:27;99924.22;;;15.58;100.00
10310;BME280;5200;43.236;27.986;2023-07-28T02:29:54;99919.63;;;15.52;100.00
10310;BME280;5200;43.236;27.986;2023-07-28T02:32:21;99926.88;;;15.58;100.00
10310;BME280;5200;43.236;27.986;2023-07-28T02:34:48;99925.75;;;15.53;100.00
10310;BME280;5200;43.236;27.986;2023-07-28T02:37:16;99910.38;;;15.40;100.00
10310;BME280;5200;43.236;27.986;2023-07-28T02:39:43;99934.88;;;15.50;100.00
10310;BME280;5200;43.236;27.986;2023-07-28T02:42:11;99913.44;;;15.29;100.00
10310;BME280;5200;43.236;27.986;2023-07-28T02:44:38;99941.66;;;15.53;100.00
10310;BME280;5200;43.236;27.986;2023-07-28T02:47:04;99938.19;;;15.52;100.00
10310;BME280;5200;43.236;27.986;2023-07-28T02:49:31;99939.34;;;15.50;100.00
10310;BME280;5200;43.236;27.986;2023-07-28T02:51:58;99940.16;;;15.58;100.00
10310;BME280;5200;43.236;27.986;2023-07-28T02:54:27;99942.78;;;15.58;100.00
10310;BME280;5200;43.236;27.986;2023-07-28T02:56:54;99918.66;;;15.45;100.00
10310;BME280;5200;43.236;27.986;2023-07-28T02:59:21;99943.28;;;15.70;100.00
10310;BME280;5200;43.236;27.986;2023-07-28T03:01:48;99942.03;;;15.89;100.00
10310;BME280;5200;43.236;27.986;2023-07-28T03:04:17;99954.13;;;16.23;100.00
10310;BME280;5200;43.236;27.986;2023-07-28T03:06:45;99946.81;;;16.48;100.00
10310;BME280;5200;43.236;27.986;2023-07-28T03:09:13;99941.13;;;16.74;100.00
10310;BME280;5200;43.236;27.986;2023-07-28T03:11:42;99944.44;;;17.14;100.00
10310;BME280;5200;43.236;27.986;2023-07-28T03:14:09;99969.97;;;17.53;100.00
10310;BME280;5200;43.236;27.986;2023-07-28T03:16:35;99937.72;;;17.78;100.00
10310;BME280;5200;43.236;27.986;2023-07-28T03:19:02;99942.78;;;18.24;100.00
10310;BME280;5200;43.236;27.986;2023-07-28T03:21:29;99962.66;;;18.86;100.00
10310;BME280;5200;43.236;27.986;2023-07-28T03:23:56;99968.53;;;19.31;100.00
10310;BME280;5200;43.236;27.986;2023-07-28T03:26:23;99963.31;;;19.85;97.50
10310;BME280;5200;43.236;27.986;2023-07-28T03:28:52;99954.00;;;20.30;92.88
10310;BME280;5200;43.236;27.986;2023-07-28T03:31:19;99968.66;;;20.80;90.61
10310;BME280;5200;43.236;27.986;2023-07-28T03:33:45;99974.81;;;21.27;89.12
10310;BME280;5200;43.236;27.986;2023-07-28T03:36:12;99971.59;;;21.84;84.44
10310;BME280;5200;43.236;27.986;2023-07-28T03:38:39;99965.56;;;22.40;80.90
10310;BME280;5200;43.236;27.986;2023-07-28T03:41:06;99975.03;;;22.74;78.41
10310;BME280;5200;43.236;27.986;2023-07-28T03:43:33;99939.88;;;22.83;76.74
10310;BME280;5200;43.236;27.986;2023-07-28T03:46:02;99971.59;;;23.17;74.81
10310;BME280;5200;43.236;27.986;2023-07-28T03:48:29;99978.19;;;23.40;73.80
10310;BME280;5200;43.236;27.986;2023-07-28T03:50:55;99953.41;;;23.56;71.49
10310;BME280;5200;43.236;27.986;2023-07-28T03:53:22;99975.72;;;23.94;62.80
10310;BME280;5200;43.236;27.986;2023-07-28T03:55:49;99976.47;;;24.01;62.54
10310;BME280;5200;43.236;27.986;2023-07-28T03:58:16;99980.69;;;24.27;61.79
10310;BME280;5200;43.236;27.986;2023-07-28T04:00:43;99969.72;;;24.40;61.89
10310;BME280;5200;43.236;27.986;2023-07-28T04:03:11;99968.19;;;24.63;59.72
10310;BME280;5200;43.236;27.986;2023-07-28T04:05:38;99968.91;;;24.70;58.71
10310;BME280;5200;43.236;27.986;2023-07-28T04:08:05;100001.69;;;25.02;58.42
10310;BME280;5200;43.236;27.986;2023-07-28T04:10:32;99980.63;;;24.99;59.07
10310;BME280;5200;43.236;27.986;2023-07-28T04:12:59;99995.41;;;25.20;59.79
10310;BME280;5200;43.236;27.986;2023-07-28T04:15:26;99988.09;;;25.09;60.64
10310;BME280;5200;43.236;27.986;2023-07-28T04:17:53;99986.97;;;25.17;60.77
10310;BME280;5200;43.236;27.986;2023-07-28T04:20:21;100003.13;;;25.52;60.24
10310;BME280;5200;43.236;27.986;2023-07-28T04:22:48;100010.63;;;25.50;58.89
10310;BME280;5200;43.236;27.986;2023-07-28T04:25:15;100013.66;;;25.42;59.29
10310;BME280;5200;43.236;27.986;2023-07-28T04:27:42;100020.91;;;25.53;59.13
10310;BME280;5200;43.236;27.986;2023-07-28T04:30:09;100019.03;;;25.65;59.21
10310;BME280;5200;43.236;27.986;2023-07-28T04:32:37;100022.66;;;25.71;58.85
10310;BME280;5200;43.236;27.986;2023-07-28T04:35:05;100013.66;;;25.42;59.63
10310;BME280;5200;43.236;27.986;2023-07-28T04:37:34;100023.50;;;25.48;60.30
10310;BME280;5200;43.236;27.986;2023-07-28T04:40:00;99987.69;;;25.36;59.74
10310;BME280;5200;43.236;27.986;2023-07-28T04:42:27;100005.84;;;25.40;60.62
10310;BME280;5200;43.236;27.986;2023-07-28T04:44:54;100020.69;;;25.43;61.04
10310;BME280;5200;43.236;27.986;2023-07-28T04:47:21;100021.75;;;25.42;61.47
10310;BME280;5200;43.236;27.986;2023-07-28T04:49:48;100018.13;;;25.48;61.01
10310;BME280;5200;43.236;27.986;2023-07-28T04:52:15;100026.91;;;25.43;60.25
10310;BME280;5200;43.236;27.986;2023-07-28T04:54:43;100007.47;;;25.18;61.17
10310;BME280;5200;43.236;27.986;2023-07-28T04:57:10;100012.94;;;25.11;61.52
10310;BME280;5200;43.236;27.986;2023-07-28T04:59:37;100033.34;;;25.19;61.70
10310;BME280;5200;43.236;27.986;2023-07-28T05:02:04;100031.69;;;25.29;61.81
10310;BME280;5200;43.236;27.986;2023-07-28T05:04:31;100019.53;;;25.39;61.19
10310;BME280;5200;43.236;27.986;2023-07-28T05:06:58;100013.75;;;25.47;61.76
10310;BME280;5200;43.236;27.986;2023-07-28T05:09:25;100016.91;;;25.67;61.69
10310;BME280;5200;43.236;27.986;2023-07-28T05:11:54;100001.91;;;25.71;59.76
10310;BME280;5200;43.236;27.986;2023-07-28T05:14:22;99995.72;;;25.71;59.72
10310;BME280;5200;43.236;27.986;2023-07-28T05:16:48;99987.72;;;25.76;59.71
10310;BME280;5200;43.236;27.986;2023-07-28T05:19:15;100019.59;;;25.91;59.87
10310;BME280;5200;43.236;27.986;2023-07-28T05:21:42;100017.94;;;26.02;60.05
10310;BME280;5200;43.236;27.986;2023-07-28T05:24:10;100007.97;;;26.02;59.73
10310;BME280;5200;43.236;27.986;2023-07-28T05:26:37;100005.13;;;26.09;60.06
10310;BME280;5200;43.236;27.986;2023-07-28T05:29:05;99996.31;;;26.13;60.27
10310;BME280;5200;43.236;27.986;2023-07-28T05:31:32;100010.47;;;26.21;61.05
10310;BME280;5200;43.236;27.986;2023-07-28T05:33:59;100016.78;;;26.26;60.82
10310;BME280;5200;43.236;27.986;2023-07-28T05:36:26;100025.75;;;26.03;59.82
10310;BME280;5200;43.236;27.986;2023-07-28T05:38:53;99997.47;;;25.65;60.12
10310;BME280;5200;43.236;27.986;2023-07-28T05:41:22;100024.53;;;25.70;60.89
10310;BME280;5200;43.236;27.986;2023-07-28T05:43:49;100027.69;;;25.67;61.81
10310;BME280;5200;43.236;27.986;2023-07-28T05:46:18;100009.66;;;25.56;61.77
10310;BME280;5200;43.236;27.986;2023-07-28T05:48:45;100014.34;;;25.49;61.74
10310;BME280;5200;43.236;27.986;2023-07-28T05:51:12;100033.69;;;25.58;62.45
10310;BME280;5200;43.236;27.986;2023-07-28T05:53:38;100027.78;;;25.72;63.83
10310;BME280;5200;43.236;27.986;2023-07-28T05:56:05;100035.75;;;25.79;62.81
10310;BME280;5200;43.236;27.986;2023-07-28T05:58:32;100023.56;;;25.77;61.93
10310;BME280;5200;43.236;27.986;2023-07-28T06:00:59;100034.81;;;25.85;62.15
10310;BME280;5200;43.236;27.986;2023-07-28T06:03:27;100018.53;;;25.92;62.38
10310;BME280;5200;43.236;27.986;2023-07-28T06:05:56;100025.06;;;25.96;61.74
10310;BME280;5200;43.236;27.986;2023-07-28T06:08:23;100016.16;;;26.07;62.40
10310;BME280;5200;43.236;27.986;2023-07-28T06:10:50;100030.88;;;26.17;61.78
10310;BME280;5200;43.236;27.986;2023-07-28T06:13:16;100008.69;;;26.26;61.33
10310;BME280;5200;43.236;27.986;2023-07-28T06:15:43;100025.13;;;26.53;61.73
10310;BME280;5200;43.236;27.986;2023-07-28T06:18:10;100025.41;;;26.69;60.61
10310;BME280;5200;43.236;27.986;2023-07-28T06:20:41;100009.88;;;26.76;59.96
10310;BME280;5200;43.236;27.986;2023-07-28T06:23:08;100022.16;;;27.01;59.52
10310;BME280;5200;43.236;27.986;2023-07-28T06:25:35;100014.28;;;27.16;58.75
10310;BME280;5200;43.236;27.986;2023-07-28T06:28:04;100024.34;;;27.37;58.13
10310;BME280;5200;43.236;27.986;2023-07-28T06:30:31;100029.91;;;27.48;57.63
10310;BME280;5200;43.236;27.986;2023-07-28T06:32:58;100024.16;;;27.61;56.96
10310;BME280;5200;43.236;27.986;2023-07-28T06:35:25;100020.69;;;27.66;56.52
10310;BME280;5200;43.236;27.986;2023-07-28T06:37:54;100016.91;;;27.83;56.39
10310;BME280;5200;43.236;27.986;2023-07-28T06:40:21;100032.25;;;28.00;53.96
10310;BME280;5200;43.236;27.986;2023-07-28T06:42:48;100041.53;;;28.09;54.27
10310;BME280;5200;43.236;27.986;2023-07-28T06:45:15;100023.75;;;28.13;54.30
10310;BME280;5200;43.236;27.986;2023-07-28T06:47:42;100022.81;;;28.24;53.51
10310;BME280;5200;43.236;27.986;2023-07-28T06:50:10;100035.34;;;28.36;52.02
10310;BME280;5200;43.236;27.986;2023-07-28T06:52:37;100037.81;;;28.37;51.38
10310;BME280;5200;43.236;27.986;2023-07-28T06:55:06;100028.94;;;28.42;52.31
10310;BME280;5200;43.236;27.986;2023-07-28T06:57:33;100042.94;;;28.61;50.42
10310;BME280;5200;43.236;27.986;2023-07-28T07:00:01;100033.81;;;28.67;50.49
10310;BME280;5200;43.236;27.986;2023-07-28T07:02:29;100028.22;;;28.79;50.48
10310;BME280;5200;43.236;27.986;2023-07-28T07:04:55;100023.34;;;28.81;50.43
10310;BME280;5200;43.236;27.986;2023-07-28T07:07:22;100030.97;;;28.84;49.70
10310;BME280;5200;43.236;27.986;2023-07-28T07:09:51;100047.28;;;28.94;49.59
10310;BME280;5200;43.236;27.986;2023-07-28T07:12:19;100055.50;;;29.04;49.82
10310;BME280;5200;43.236;27.986;2023-07-28T07:14:47;100045.84;;;29.14;49.52
10310;BME280;5200;43.236;27.986;2023-07-28T07:17:14;100047.84;;;29.23;49.69
10310;BME280;5200;43.236;27.986;2023-07-28T07:19:41;100058.78;;;29.44;50.49
10310;BME280;5200;43.236;27.986;2023-07-28T07:22:07;100067.28;;;29.58;49.10
10310;BME280;5200;43.236;27.986;2023-07-28T07:24:34;100054.75;;;29.46;46.99
10310;BME280;5200;43.236;27.986;2023-07-28T07:27:01;100060.75;;;29.54;48.17
10310;BME280;5200;43.236;27.986;2023-07-28T07:29:29;100064.28;;;29.54;48.87
10310;BME280;5200;43.236;27.986;2023-07-28T07:31:56;100040.06;;;29.37;49.32
10310;BME280;5200;43.236;27.986;2023-07-28T07:34:23;100066.94;;;29.49;49.13
10310;BME280;5200;43.236;27.986;2023-07-28T07:36:50;100046.31;;;29.38;49.69
10310;BME280;5200;43.236;27.986;2023-07-28T07:39:17;100057.22;;;29.53;49.33
10310;BME280;5200;43.236;27.986;2023-07-28T07:41:44;100046.09;;;29.49;48.50
10310;BME280;5200;43.236;27.986;2023-07-28T07:44:11;100064.50;;;29.42;49.50
10310;BME280;5200;43.236;27.986;2023-07-28T07:46:39;100067.72;;;29.44;49.76
10310;BME280;5200;43.236;27.986;2023-07-28T07:49:06;100052.50;;;29.33;49.33
10310;BME280;5200;43.236;27.986;2023-07-28T07:51:33;100074.84;;;29.50;50.21
10310;BME280;5200;43.236;27.986;2023-07-28T07:54:00;100046.56;;;29.36;49.10
10310;BME280;5200;43.236;27.986;2023-07-28T07:56:27;100058.97;;;29.32;48.95
10310;BME280;5200;43.236;27.986;2023-07-28T07:58:54;100058.75;;;29.39;49.46
10310;BME280;5200;43.236;27.986;2023-07-28T08:01:21;100055.59;;;29.47;49.14
10310;BME280;5200;43.236;27.986;2023-07-28T08:03:49;100047.16;;;29.48;49.61
10310;BME280;5200;43.236;27.986;2023-07-28T08:06:16;100042.88;;;29.53;48.63
10310;BME280;5200;43.236;27.986;2023-07-28T08:08:43;100061.06;;;29.62;46.87
10310;BME280;5200;43.236;27.986;2023-07-28T08:11:11;100042.09;;;29.62;46.51
10310;BME280;5200;43.236;27.986;2023-07-28T08:13:38;100051.59;;;29.65;46.47
10310;BME280;5200;43.236;27.986;2023-07-28T08:16:05;100060.38;;;29.77;45.80
10310;BME280;5200;43.236;27.986;2023-07-28T08:18:32;100054.44;;;29.85;45.08
10310;BME280;5200;43.236;27.986;2023-07-28T08:21:00;100028.69;;;29.83;44.20
10310;BME280;5200;43.236;27.986;2023-07-28T08:23:27;100036.31;;;29.96;44.39
10310;BME280;5200;43.236;27.986;2023-07-28T08:25:54;100033.31;;;29.87;44.42
10310;BME280;5200;43.236;27.986;2023-07-28T08:28:21;100052.69;;;30.22;43.98
10310;BME280;5200;43.236;27.986;2023-07-28T08:30:54;100049.25;;;30.42;43.73
10310;BME280;5200;43.236;27.986;2023-07-28T08:33:22;100049.53;;;30.50;43.64
10310;BME280;5200;43.236;27.986;2023-07-28T08:35:49;100044.94;;;30.56;42.24
10310;BME280;5200;43.236;27.986;2023-07-28T08:38:17;100043.88;;;30.67;41.43
10310;BME280;5200;43.236;27.986;2023-07-28T08:40:44;100034.06;;;30.66;41.39
10310;BME280;5200;43.236;27.986;2023-07-28T08:43:11;100044.97;;;30.76;40.00
10310;BME280;5200;43.236;27.986;2023-07-28T08:45:38;100024.31;;;30.75;39.83
10310;BME280;5200;43.236;27.986;2023-07-28T08:48:05;100032.50;;;30.86;37.85
10310;BME280;5200;43.236;27.986;2023-07-28T08:50:33;100031.88;;;30.43;36.43
10310;BME280;5200;43.236;27.986;2023-07-28T08:53:00;100026.56;;;30.00;37.92
10310;BME280;5200;43.236;27.986;2023-07-28T08:55:29;100039.88;;;29.97;38.65
10310;BME280;5200;43.236;27.986;2023-07-28T08:57:55;100032.00;;;30.00;38.86
10310;BME280;5200;43.236;27.986;2023-07-28T09:00:23;100020.31;;;29.89;40.09
10310;BME280;5200;43.236;27.986;2023-07-28T09:02:51;100030.53;;;29.72;42.12
10310;BME280;5200;43.236;27.986;2023-07-28T09:05:18;100029.28;;;29.47;43.20
10310;BME280;5200;43.236;27.986;2023-07-28T09:07:46;100019.28;;;29.11;43.95
10310;BME280;5200;43.236;27.986;2023-07-28T09:10:13;100019.13;;;29.27;44.56
10310;BME280;5200;43.236;27.986;2023-07-28T09:12:49;100029.78;;;29.39;44.34
10310;BME280;5200;43.236;27.986;2023-07-28T09:15:17;100004.22;;;29.73;44.23
10310;BME280;5200;43.236;27.986;2023-07-28T09:17:44;100027.38;;;30.01;43.38
10310;BME280;5200;43.236;27.986;2023-07-28T09:20:14;100027.38;;;29.96;42.79
10310;BME280;5200;43.236;27.986;2023-07-28T09:22:44;100025.47;;;29.96;41.61
10310;BME280;5200;43.236;27.986;2023-07-28T09:25:12;100017.78;;;29.30;42.22
10310;BME280;5200;43.236;27.986;2023-07-28T09:27:40;100022.22;;;28.72;42.57
10310;BME280;5200;43.236;27.986;2023-07-28T09:30:08;100028.31;;;28.35;44.42
10310;BME280;5200;43.236;27.986;2023-07-28T09:35:48;99997.56;;;27.92;46.74
10310;BME280;5200;43.236;27.986;2023-07-28T09:38:16;100022.38;;;28.38;44.75
10310;BME280;5200;43.236;27.986;2023-07-28T09:40:45;99999.25;;;28.47;42.40
10310;BME280;5200;43.236;27.986;2023-07-28T09:43:12;99992.84;;;28.58;42.28
10310;BME280;5200;43.236;27.986;2023-07-28T09:45:42;99997.09;;;28.49;41.29
10310;BME280;5200;43.236;27.986;2023-07-28T09:48:10;100008.00;;;28.32;41.07
10310;BME280;5200;43.236;27.986;2023-07-28T09:50:41;100000.59;;;28.22;42.03
10310;BME280;5200;43.236;27.986;2023-07-28T09:53:09;100001.56;;;28.65;42.68
10310;BME280;5200;43.236;27.986;2023-07-28T09:55:39;99999.28;;;29.17;40.91
10310;BME280;5200;43.236;27.986;2023-07-28T09:58:09;99996.53;;;29.54;40.61
10310;BME280;5200;43.236;27.986;2023-07-28T10:00:37;100018.66;;;29.88;39.07
10310;BME280;5200;43.236;27.986;2023-07-28T10:03:06;100026.53;;;29.90;39.12
10310;BME280;5200;43.236;27.986;2023-07-28T10:05:35;100024.97;;;29.52;42.85
10310;BME280;5200;43.236;27.986;2023-07-28T10:08:03;100027.44;;;29.16;47.55
10310;BME280;5200;43.236;27.986;2023-07-28T10:10:31;100033.19;;;28.92;49.43
10310;BME280;5200;43.236;27.986;2023-07-28T10:12:59;100027.38;;;28.46;48.86
10310;BME280;5200;43.236;27.986;2023-07-28T10:15:31;100014.41;;;27.99;49.72
10310;BME280;5200;43.236;27.986;2023-07-28T10:17:58;100016.53;;;27.97;50.36
10310;BME280;5200;43.236;27.986;2023-07-28T10:20:37;100020.91;;;28.03;50.63
10310;BME280;5200;43.236;27.986;2023-07-28T10:23:06;100020.91;;;28.03;51.26
10310;BME280;5200;43.236;27.986;2023-07-28T10:25:35;100014.63;;;27.97;51.21
10310;BME280;5200;43.236;27.986;2023-07-28T10:28:02;100018.44;;;27.79;52.06
10310;BME280;5200;43.236;27.986;2023-07-28T10:30:35;100000.84;;;27.55;50.74
10310;BME280;5200;43.236;27.986;2023-07-28T10:33:03;99995.06;;;27.29;52.03
10310;BME280;5200;43.236;27.986;2023-07-28T10:35:30;99995.88;;;27.13;52.70
10310;BME280;5200;43.236;27.986;2023-07-28T10:38:30;100006.03;;;27.06;52.85
10310;BME280;5200;43.236;27.986;2023-07-28T10:41:10;99999.84;;;26.88;53.72
10310;BME280;5200;43.236;27.986;2023-07-28T10:43:37;99995.56;;;26.75;53.69
10310;BME280;5200;43.236;27.986;2023-07-28T10:46:07;99974.28;;;26.62;53.35
10310;BME280;5200;43.236;27.986;2023-07-28T10:48:36;99999.66;;;26.78;56.10
10310;BME280;5200;43.236;27.986;2023-07-28T10:51:03;99961.94;;;26.83;53.47
10310;BME280;5200;43.236;27.986;2023-07-28T10:53:32;99998.44;;;27.19;52.99
10310;BME280;5200;43.236;27.986;2023-07-28T10:56:01;99970.50;;;27.14;52.19
10310;BME280;5200;43.236;27.986;2023-07-28T10:58:28;99978.94;;;27.17;51.06
10310;BME280;5200;43.236;27.986;2023-07-28T11:00:55;99988.28;;;27.10;52.09
10310;BME280;5200;43.236;27.986;2023-07-28T11:03:22;99986.72;;;26.80;52.00
10310;BME280;5200;43.236;27.986;2023-07-28T11:05:50;99965.81;;;26.70;52.76
10310;BME280;5200;43.236;27.986;2023-07-28T11:08:17;99965.47;;;26.84;51.88
10310;BME280;5200;43.236;27.986;2023-07-28T11:10:48;99986.50;;;26.98;50.52
10310;BME280;5200;43.236;27.986;2023-07-28T11:13:15;99961.13;;;26.66;51.67
10310;BME280;5200;43.236;27.986;2023-07-28T11:15:42;99967.44;;;26.43;53.27
10310;BME280;5200;43.236;27.986;2023-07-28T11:18:09;99973.31;;;26.23;54.84
10310;BME280;5200;43.236;27.986;2023-07-28T11:20:36;99975.94;;;26.34;54.50
10310;BME280;5200;43.236;27.986;2023-07-28T11:23:04;99977.75;;;26.58;54.15
10310;BME280;5200;43.236;27.986;2023-07-28T11:25:32;99961.22;;;26.54;53.13
10310;BME280;5200;43.236;27.986;2023-07-28T11:28:03;99972.47;;;26.51;53.73
10310;BME280;5200;43.236;27.986;2023-07-28T11:30:31;99960.16;;;26.43;54.29
10310;BME280;5200;43.236;27.986;2023-07-28T11:32:59;99971.06;;;26.48;53.87
10310;BME280;5200;43.236;27.986;2023-07-28T11:35:26;99957.97;;;26.40;54.82
10310;BME280;5200;43.236;27.986;2023-07-28T11:37:53;99959.78;;;26.51;54.63
10310;BME280;5200;43.236;27.986;2023-07-28T11:40:22;99963.19;;;26.59;54.66
10310;BME280;5200;43.236;27.986;2023-07-28T11:42:53;99947.69;;;26.37;54.87
10310;BME280;5200;43.236;27.986;2023-07-28T11:45:21;99948.56;;;26.43;54.60
10310;BME280;5200;43.236;27.986;2023-07-28T11:47:55;99958.69;;;26.35;54.05
10310;BME280;5200;43.236;27.986;2023-07-28T11:50:23;99946.25;;;26.18;53.87
10310;BME280;5200;43.236;27.986;2023-07-28T11:52:51;99947.72;;;26.08;53.48
10310;BME280;5200;43.236;27.986;2023-07-28T11:55:18;99966.94;;;26.00;54.63
10310;BME280;5200;43.236;27.986;2023-07-28T11:57:46;99946.59;;;25.81;55.74
10310;BME280;5200;43.236;27.986;2023-07-28T12:00:13;99941.44;;;25.91;56.89
10310;BME280;5200;43.236;27.986;2023-07-28T12:02:44;99935.09;;;25.97;57.13
10310;BME280;5200;43.236;27.986;2023-07-28T12:05:13;99944.72;;;25.93;57.38
10310;BME280;5200;43.236;27.986;2023-07-28T12:07:40;99944.50;;;25.83;58.43
10310;BME280;5200;43.236;27.986;2023-07-28T12:10:08;99935.25;;;25.79;57.99
10310;BME280;5200;43.236;27.986;2023-07-28T12:12:44;99923.34;;;25.63;57.68
10310;BME280;5200;43.236;27.986;2023-07-28T12:15:23;99953.41;;;25.71;58.23
10310;BME280;5200;43.236;27.986;2023-07-28T12:18:08;99934.13;;;25.51;59.23
10310;BME280;5200;43.236;27.986;2023-07-28T12:20:38;99940.59;;;25.50;59.59
10310;BME280;5200;43.236;27.986;2023-07-28T12:23:05;99941.19;;;25.52;59.73
10310;BME280;5200;43.236;27.986;2023-07-28T12:25:33;99944.81;;;25.46;57.15
10310;BME280;5200;43.236;27.986;2023-07-28T12:27:59;99935.25;;;25.26;56.53
10310;BME280;5200;43.236;27.986;2023-07-28T12:30:27;99917.44;;;25.02;54.90
10310;BME280;5200;43.236;27.986;2023-07-28T12:32:54;99936.84;;;25.04;56.04
10310;BME280;5200;43.236;27.986;2023-07-28T12:35:22;99931.25;;;24.94;56.09
10310;BME280;5200;43.236;27.986;2023-07-28T12:37:50;99933.56;;;24.90;56.22
10310;BME280;5200;43.236;27.986;2023-07-28T12:40:17;99910.91;;;24.74;56.75
10310;BME280;5200;43.236;27.986;2023-07-28T12:42:44;99917.69;;;24.88;57.04
10310;BME280;5200;43.236;27.986;2023-07-28T12:45:12;99922.22;;;25.00;57.06
10310;BME280;5200;43.236;27.986;2023-07-28T12:47:39;99924.00;;;25.06;57.86
10310;BME280;5200;43.236;27.986;2023-07-28T12:50:06;99910.41;;;25.01;57.20
10310;BME280;5200;43.236;27.986;2023-07-28T12:52:35;99911.94;;;24.97;57.37
10310;BME280;5200;43.236;27.986;2023-07-28T12:55:02;99916.28;;;24.86;56.41
10310;BME280;5200;43.236;27.986;2023-07-28T12:57:29;99909.81;;;24.52;56.94
10310;BME280;5200;43.236;27.986;2023-07-28T12:59:56;99921.16;;;24.54;57.51